SHU5652 UHHH-UIII
Flight info
| Callsign | SHU5652 |
|---|---|
| Flight time | N/A |
| Altitude | 38000 |
| Route | IVADA A946 TORMA N992 GU G229 NIKTO P873 KU W173 NERKA W268 RINOP A45 USONA |
| Aircraft | A319/M-SDE3FGHIRWY/LB1 |
Departure
| Time | N/A |
|---|---|
| Airport | Khabarovsk Novy Airport (UHHH) |
Arrival
| Time | 2026-05-08 21:06 |
|---|---|
| Airport | Irkutsk International Airport (UIII) |
| Time | Latitude | Longitude | Altitude | Speed | Heading |
|---|---|---|---|---|---|
| 2026-05-08 18:40 | 52.26228 | 128.26510 | 34369 ft | 439 kts | 314° |
| 2026-05-08 18:41 | 52.28219 | 128.22653 | 34519 ft | 439 kts | 314° |
| 2026-05-08 18:41 | 52.30187 | 128.18842 | 34666 ft | 439 kts | 314° |
| 2026-05-08 18:41 | 52.32152 | 128.15033 | 34818 ft | 439 kts | 314° |
| 2026-05-08 18:41 | 52.34116 | 128.11215 | 34972 ft | 438 kts | 313° |
| 2026-05-08 18:42 | 52.36077 | 128.07391 | 35111 ft | 438 kts | 313° |
| 2026-05-08 18:42 | 52.38007 | 128.03615 | 35262 ft | 438 kts | 313° |
| 2026-05-08 18:42 | 52.39962 | 127.99792 | 35413 ft | 438 kts | 313° |
| 2026-05-08 18:42 | 52.41922 | 127.95965 | 35565 ft | 438 kts | 313° |
| 2026-05-08 18:43 | 52.43880 | 127.92136 | 35712 ft | 438 kts | 313° |
| 2026-05-08 18:43 | 52.45830 | 127.88311 | 35847 ft | 437 kts | 313° |
| 2026-05-08 18:43 | 52.49721 | 127.80646 | 35870 ft | 437 kts | 313° |
| 2026-05-08 18:44 | 52.53606 | 127.72974 | 35870 ft | 437 kts | 313° |
| 2026-05-08 18:44 | 52.57485 | 127.65282 | 35873 ft | 437 kts | 313° |
| 2026-05-08 18:45 | 52.61363 | 127.57582 | 35869 ft | 436 kts | 312° |
| 2026-05-08 18:45 | 52.65206 | 127.49933 | 35867 ft | 437 kts | 312° |
| 2026-05-08 18:46 | 52.69066 | 127.42217 | 35874 ft | 436 kts | 312° |
| 2026-05-08 18:46 | 52.72910 | 127.34457 | 35874 ft | 436 kts | 312° |
| 2026-05-08 18:47 | 52.76735 | 127.26674 | 35871 ft | 437 kts | 312° |
| 2026-05-08 18:47 | 52.80558 | 127.18865 | 35874 ft | 437 kts | 312° |
| 2026-05-08 18:48 | 52.84379 | 127.11052 | 35877 ft | 437 kts | 312° |
| 2026-05-08 18:48 | 52.88203 | 127.03242 | 35870 ft | 437 kts | 312° |
| 2026-05-08 18:49 | 52.92025 | 126.95417 | 35875 ft | 437 kts | 311° |
| 2026-05-08 18:49 | 52.95813 | 126.87603 | 35862 ft | 437 kts | 311° |
| 2026-05-08 18:50 | 52.99620 | 126.79735 | 35861 ft | 437 kts | 311° |
| 2026-05-08 18:50 | 53.03429 | 126.71852 | 35874 ft | 437 kts | 311° |
| 2026-05-08 18:51 | 53.07228 | 126.63941 | 35875 ft | 437 kts | 311° |
| 2026-05-08 18:51 | 53.11021 | 126.56025 | 35879 ft | 437 kts | 311° |
| 2026-05-08 18:52 | 53.14816 | 126.48096 | 35856 ft | 437 kts | 311° |
| 2026-05-08 18:52 | 53.18602 | 126.40160 | 35862 ft | 438 kts | 311° |
| 2026-05-08 18:53 | 53.22388 | 126.32209 | 35872 ft | 438 kts | 311° |
| 2026-05-08 18:53 | 53.26163 | 126.24227 | 35872 ft | 438 kts | 310° |
| 2026-05-08 18:54 | 53.29925 | 126.16237 | 35857 ft | 438 kts | 310° |
| 2026-05-08 18:54 | 53.33667 | 126.08293 | 35863 ft | 437 kts | 310° |
| 2026-05-08 18:55 | 53.39299 | 125.96263 | 35872 ft | 438 kts | 310° |
| 2026-05-08 18:56 | 53.43051 | 125.88235 | 35874 ft | 438 kts | 310° |
| 2026-05-08 18:56 | 53.46511 | 125.79825 | 35878 ft | 441 kts | 299° |
| 2026-05-08 18:57 | 53.48484 | 125.70047 | 35869 ft | 445 kts | 286° |
| 2026-05-08 18:57 | 53.49963 | 125.59968 | 35875 ft | 445 kts | 286° |
| 2026-05-08 18:58 | 53.51438 | 125.49878 | 35878 ft | 445 kts | 286° |
| 2026-05-08 18:58 | 53.52898 | 125.39776 | 35880 ft | 445 kts | 286° |
| 2026-05-08 18:59 | 53.54363 | 125.29666 | 35885 ft | 445 kts | 286° |
| 2026-05-08 18:59 | 53.55816 | 125.19556 | 35884 ft | 445 kts | 285° |
| 2026-05-08 19:00 | 53.57023 | 125.11075 | 35890 ft | 445 kts | 285° |
| 2026-05-08 19:00 | 53.58443 | 125.01015 | 35892 ft | 444 kts | 285° |
| 2026-05-08 19:01 | 53.59867 | 124.90895 | 35894 ft | 444 kts | 285° |
| 2026-05-08 19:01 | 53.61285 | 124.80768 | 35895 ft | 444 kts | 285° |
| 2026-05-08 19:02 | 53.62688 | 124.70640 | 35885 ft | 444 kts | 285° |
| 2026-05-08 19:02 | 53.64083 | 124.60506 | 35894 ft | 443 kts | 285° |
| 2026-05-08 19:03 | 53.65472 | 124.50376 | 35895 ft | 443 kts | 285° |
| 2026-05-08 19:03 | 53.66846 | 124.40262 | 35882 ft | 443 kts | 285° |
| 2026-05-08 19:04 | 53.68206 | 124.30137 | 35886 ft | 442 kts | 285° |
| 2026-05-08 19:04 | 53.69570 | 124.20011 | 35879 ft | 442 kts | 284° |
| 2026-05-08 19:05 | 53.70921 | 124.09895 | 35889 ft | 442 kts | 284° |
| 2026-05-08 19:05 | 53.72262 | 123.99780 | 35891 ft | 441 kts | 284° |
| 2026-05-08 19:06 | 53.73580 | 123.89713 | 35891 ft | 441 kts | 284° |
| 2026-05-08 19:06 | 53.74898 | 123.79574 | 35893 ft | 441 kts | 284° |
| 2026-05-08 19:07 | 53.76213 | 123.69448 | 35885 ft | 441 kts | 284° |
| 2026-05-08 19:07 | 53.77515 | 123.59314 | 35899 ft | 441 kts | 284° |
| 2026-05-08 19:08 | 53.78777 | 123.49177 | 35900 ft | 441 kts | 281° |
| 2026-05-08 19:08 | 53.78964 | 123.38785 | 35905 ft | 444 kts | 270° |
| 2026-05-08 19:09 | 53.78782 | 123.28349 | 35909 ft | 444 kts | 270° |
| 2026-05-08 19:09 | 53.78619 | 123.17919 | 35907 ft | 444 kts | 270° |
| 2026-05-08 19:10 | 53.78445 | 123.07485 | 35893 ft | 444 kts | 270° |
| 2026-05-08 19:10 | 53.78260 | 122.97067 | 35905 ft | 443 kts | 270° |
| 2026-05-08 19:11 | 53.78054 | 122.86656 | 35909 ft | 443 kts | 270° |
| 2026-05-08 19:11 | 53.77837 | 122.76260 | 35910 ft | 443 kts | 270° |
| 2026-05-08 19:12 | 53.77622 | 122.65859 | 35908 ft | 442 kts | 270° |
| 2026-05-08 19:12 | 53.77396 | 122.55464 | 35909 ft | 442 kts | 270° |
| 2026-05-08 19:13 | 53.77166 | 122.45134 | 35910 ft | 442 kts | 270° |
| 2026-05-08 19:13 | 53.76918 | 122.34731 | 35909 ft | 442 kts | 270° |
| 2026-05-08 19:14 | 53.76664 | 122.24339 | 35907 ft | 442 kts | 270° |
| 2026-05-08 19:14 | 53.76396 | 122.13947 | 35899 ft | 442 kts | 270° |
| 2026-05-08 19:15 | 53.76147 | 122.03551 | 35908 ft | 442 kts | 270° |
| 2026-05-08 19:15 | 53.75912 | 121.93160 | 35909 ft | 442 kts | 270° |
| 2026-05-08 19:16 | 53.75673 | 121.82783 | 35907 ft | 442 kts | 269° |
| 2026-05-08 19:16 | 53.75405 | 121.72420 | 35919 ft | 441 kts | 269° |
| 2026-05-08 19:17 | 53.75132 | 121.62127 | 35916 ft | 441 kts | 270° |
| 2026-05-08 19:17 | 53.74855 | 121.51778 | 35911 ft | 441 kts | 269° |
| 2026-05-08 19:18 | 53.74564 | 121.41430 | 35910 ft | 441 kts | 269° |
| 2026-05-08 19:18 | 53.74266 | 121.31087 | 35904 ft | 441 kts | 269° |
| 2026-05-08 19:19 | 53.73965 | 121.20752 | 35895 ft | 440 kts | 269° |
| 2026-05-08 19:19 | 53.73653 | 121.10430 | 35899 ft | 440 kts | 269° |
| 2026-05-08 19:20 | 53.73328 | 121.00120 | 35907 ft | 439 kts | 269° |
| 2026-05-08 19:20 | 53.72998 | 120.89819 | 35911 ft | 439 kts | 269° |
| 2026-05-08 19:21 | 53.72658 | 120.79512 | 35911 ft | 439 kts | 269° |
| 2026-05-08 19:21 | 53.72302 | 120.69216 | 35911 ft | 439 kts | 269° |
| 2026-05-08 19:22 | 53.71944 | 120.58929 | 35907 ft | 439 kts | 269° |
| 2026-05-08 19:22 | 53.71589 | 120.48654 | 35909 ft | 439 kts | 268° |
| 2026-05-08 19:23 | 53.71215 | 120.38377 | 35889 ft | 438 kts | 268° |
| 2026-05-08 19:23 | 53.70826 | 120.28106 | 35896 ft | 438 kts | 268° |
| 2026-05-08 19:24 | 53.70437 | 120.17843 | 35916 ft | 438 kts | 268° |
| 2026-05-08 19:24 | 53.70039 | 120.07654 | 35916 ft | 438 kts | 268° |
| 2026-05-08 19:25 | 53.69630 | 119.97396 | 35929 ft | 438 kts | 268° |
| 2026-05-08 19:25 | 53.69212 | 119.87142 | 35925 ft | 438 kts | 268° |
| 2026-05-08 19:26 | 53.68775 | 119.76900 | 35937 ft | 438 kts | 268° |
| 2026-05-08 19:26 | 53.68112 | 119.66689 | 35936 ft | 439 kts | 263° |
| 2026-05-08 19:27 | 53.67119 | 119.56533 | 35939 ft | 439 kts | 262° |
| 2026-05-08 19:27 | 53.66122 | 119.46382 | 35923 ft | 439 kts | 262° |
| 2026-05-08 19:28 | 53.65115 | 119.36241 | 35924 ft | 439 kts | 262° |
| 2026-05-08 19:28 | 53.64108 | 119.26104 | 35914 ft | 438 kts | 262° |
| 2026-05-08 19:29 | 53.63088 | 119.15980 | 35924 ft | 438 kts | 262° |
| 2026-05-08 19:29 | 53.62050 | 119.05868 | 35927 ft | 438 kts | 262° |
| 2026-05-08 19:30 | 53.61011 | 118.95764 | 35941 ft | 438 kts | 262° |
| 2026-05-08 19:30 | 53.59970 | 118.85673 | 35951 ft | 437 kts | 262° |
| 2026-05-08 19:31 | 53.58919 | 118.75590 | 35951 ft | 437 kts | 262° |
| 2026-05-08 19:31 | 53.57860 | 118.65583 | 35956 ft | 437 kts | 262° |
| 2026-05-08 19:32 | 53.56781 | 118.55506 | 35955 ft | 437 kts | 262° |
| 2026-05-08 19:32 | 53.55703 | 118.45448 | 35969 ft | 437 kts | 262° |
| 2026-05-08 19:33 | 53.54618 | 118.35399 | 35968 ft | 437 kts | 262° |
| 2026-05-08 19:33 | 53.53523 | 118.25352 | 35979 ft | 437 kts | 261° |
| 2026-05-08 19:34 | 53.52418 | 118.15302 | 35975 ft | 437 kts | 261° |
| 2026-05-08 19:34 | 53.51306 | 118.05267 | 35976 ft | 437 kts | 261° |
| 2026-05-08 19:35 | 53.50188 | 117.95244 | 35966 ft | 437 kts | 261° |
| 2026-05-08 19:35 | 53.49062 | 117.85224 | 35965 ft | 436 kts | 261° |
| 2026-05-08 19:36 | 53.47935 | 117.75285 | 35974 ft | 436 kts | 261° |
| 2026-05-08 19:36 | 53.46795 | 117.65284 | 35959 ft | 436 kts | 261° |
| 2026-05-08 19:37 | 53.45640 | 117.55295 | 35957 ft | 436 kts | 261° |
| 2026-05-08 19:37 | 53.44473 | 117.45313 | 35956 ft | 436 kts | 261° |
| 2026-05-08 19:38 | 53.43303 | 117.35335 | 35938 ft | 436 kts | 261° |
| 2026-05-08 19:38 | 53.42121 | 117.25360 | 35936 ft | 436 kts | 261° |
| 2026-05-08 19:39 | 53.40941 | 117.15395 | 35937 ft | 436 kts | 260° |
| 2026-05-08 19:39 | 53.39754 | 117.05433 | 35938 ft | 436 kts | 260° |
| 2026-05-08 19:40 | 53.38551 | 116.95482 | 35938 ft | 436 kts | 260° |
| 2026-05-08 19:40 | 53.37333 | 116.85539 | 35946 ft | 436 kts | 260° |
| 2026-05-08 19:41 | 53.36073 | 116.75614 | 35945 ft | 436 kts | 259° |
| 2026-05-08 19:41 | 53.34719 | 116.65792 | 35944 ft | 436 kts | 258° |
| 2026-05-08 19:42 | 53.33321 | 116.55917 | 35944 ft | 436 kts | 258° |
| 2026-05-08 19:42 | 53.31941 | 116.46039 | 35927 ft | 436 kts | 259° |
| 2026-05-08 19:43 | 53.30573 | 116.36175 | 35929 ft | 436 kts | 258° |
| 2026-05-08 19:43 | 53.29189 | 116.26315 | 35936 ft | 435 kts | 258° |
| 2026-05-08 19:44 | 53.27790 | 116.16469 | 35936 ft | 435 kts | 258° |
| 2026-05-08 19:44 | 53.26388 | 116.06627 | 35936 ft | 435 kts | 258° |
| 2026-05-08 19:45 | 53.24975 | 115.96799 | 35935 ft | 435 kts | 258° |
| 2026-05-08 19:45 | 53.23553 | 115.86973 | 35932 ft | 435 kts | 258° |
| 2026-05-08 19:46 | 53.22124 | 115.77157 | 35935 ft | 435 kts | 258° |
| 2026-05-08 19:46 | 53.20215 | 115.64094 | 35926 ft | 435 kts | 258° |
| 2026-05-08 19:47 | 53.18533 | 115.52705 | 35908 ft | 435 kts | 258° |
| 2026-05-08 19:47 | 53.17074 | 115.42915 | 35911 ft | 435 kts | 258° |
| 2026-05-08 19:48 | 53.15861 | 115.34771 | 35918 ft | 435 kts | 258° |
| 2026-05-08 19:48 | 53.14392 | 115.25004 | 35904 ft | 435 kts | 257° |
| 2026-05-08 19:49 | 53.12917 | 115.15236 | 35905 ft | 435 kts | 257° |
| 2026-05-08 19:49 | 53.11430 | 115.05470 | 35907 ft | 435 kts | 257° |
| 2026-05-08 19:50 | 53.09936 | 114.95714 | 35894 ft | 435 kts | 257° |
| 2026-05-08 19:50 | 53.08435 | 114.85963 | 35898 ft | 435 kts | 257° |
| 2026-05-08 19:51 | 53.06926 | 114.76218 | 35901 ft | 435 kts | 257° |
| 2026-05-08 19:51 | 53.05412 | 114.66477 | 35902 ft | 435 kts | 257° |
| 2026-05-08 19:52 | 53.03885 | 114.56744 | 35898 ft | 435 kts | 256° |
| 2026-05-08 19:52 | 53.02347 | 114.47029 | 35892 ft | 435 kts | 256° |
| 2026-05-08 19:53 | 53.00813 | 114.37380 | 35888 ft | 435 kts | 256° |
| 2026-05-08 19:53 | 52.99265 | 114.27684 | 35881 ft | 435 kts | 256° |
| 2026-05-08 19:54 | 52.97712 | 114.17984 | 35882 ft | 435 kts | 256° |
| 2026-05-08 19:54 | 52.96148 | 114.08291 | 35897 ft | 435 kts | 256° |
| 2026-05-08 19:55 | 52.94576 | 113.98609 | 35887 ft | 435 kts | 256° |
| 2026-05-08 19:55 | 52.92997 | 113.88931 | 35886 ft | 435 kts | 256° |
| 2026-05-08 19:56 | 52.91409 | 113.79256 | 35880 ft | 435 kts | 256° |
| 2026-05-08 19:56 | 52.89814 | 113.69582 | 35887 ft | 435 kts | 256° |
| 2026-05-08 19:57 | 52.88204 | 113.59907 | 35872 ft | 435 kts | 255° |
| 2026-05-08 19:57 | 52.86589 | 113.50251 | 35876 ft | 435 kts | 255° |
| 2026-05-08 19:58 | 52.84966 | 113.40589 | 35882 ft | 436 kts | 255° |
| 2026-05-08 19:58 | 52.83343 | 113.30988 | 35890 ft | 436 kts | 255° |
| 2026-05-08 19:59 | 52.81707 | 113.21326 | 35881 ft | 436 kts | 255° |
| 2026-05-08 19:59 | 52.80056 | 113.11660 | 35890 ft | 437 kts | 255° |
| 2026-05-08 20:00 | 52.78396 | 113.02002 | 35893 ft | 437 kts | 255° |
| 2026-05-08 20:00 | 52.76728 | 112.92350 | 35888 ft | 437 kts | 255° |
| 2026-05-08 20:01 | 52.75052 | 112.82695 | 35879 ft | 437 kts | 255° |
| 2026-05-08 20:01 | 52.73381 | 112.73121 | 35878 ft | 437 kts | 255° |
| 2026-05-08 20:02 | 52.71697 | 112.63492 | 35882 ft | 437 kts | 255° |
| 2026-05-08 20:02 | 52.69995 | 112.53836 | 35878 ft | 438 kts | 254° |
| 2026-05-08 20:03 | 52.68285 | 112.44201 | 35876 ft | 438 kts | 254° |
| 2026-05-08 20:03 | 52.66565 | 112.34563 | 35897 ft | 439 kts | 254° |
| 2026-05-08 20:04 | 52.64833 | 112.24926 | 35897 ft | 439 kts | 254° |
| 2026-05-08 20:04 | 52.63416 | 112.17041 | 35892 ft | 439 kts | 254° |
| 2026-05-08 20:05 | 52.61676 | 112.07415 | 35904 ft | 439 kts | 254° |
| 2026-05-08 20:05 | 52.59925 | 111.97790 | 35892 ft | 439 kts | 254° |
| 2026-05-08 20:06 | 52.58165 | 111.88152 | 35903 ft | 440 kts | 254° |
| 2026-05-08 20:06 | 52.56389 | 111.78500 | 35905 ft | 441 kts | 254° |
| 2026-05-08 20:07 | 52.54610 | 111.68895 | 35910 ft | 442 kts | 254° |
| 2026-05-08 20:07 | 52.52809 | 111.59233 | 35926 ft | 442 kts | 254° |
| 2026-05-08 20:08 | 52.50995 | 111.49573 | 35928 ft | 442 kts | 253° |
| 2026-05-08 20:08 | 52.49153 | 111.39941 | 35934 ft | 442 kts | 253° |
| 2026-05-08 20:09 | 52.47286 | 111.30318 | 35926 ft | 443 kts | 253° |
| 2026-05-08 20:09 | 52.45408 | 111.20688 | 35926 ft | 444 kts | 253° |
| 2026-05-08 20:10 | 52.43549 | 111.11110 | 35930 ft | 444 kts | 253° |
| 2026-05-08 20:10 | 52.41670 | 111.01467 | 35932 ft | 444 kts | 253° |
| 2026-05-08 20:11 | 52.39779 | 110.91829 | 35934 ft | 444 kts | 253° |
| 2026-05-08 20:11 | 52.37878 | 110.82192 | 35934 ft | 445 kts | 253° |
| 2026-05-08 20:12 | 52.35962 | 110.72564 | 35933 ft | 445 kts | 253° |
| 2026-05-08 20:12 | 52.34032 | 110.62939 | 35934 ft | 446 kts | 253° |
| 2026-05-08 20:13 | 52.32096 | 110.53301 | 35937 ft | 446 kts | 253° |
| 2026-05-08 20:13 | 52.30160 | 110.43661 | 35941 ft | 447 kts | 253° |
| 2026-05-08 20:14 | 52.28200 | 110.34019 | 35949 ft | 447 kts | 252° |
| 2026-05-08 20:14 | 52.26235 | 110.24386 | 35947 ft | 447 kts | 252° |
| 2026-05-08 20:15 | 52.24262 | 110.14757 | 35952 ft | 447 kts | 252° |
| 2026-05-08 20:15 | 52.22290 | 110.05187 | 35943 ft | 448 kts | 252° |
| 2026-05-08 20:16 | 52.20291 | 109.95551 | 35941 ft | 448 kts | 252° |
| 2026-05-08 20:16 | 52.18300 | 109.85920 | 35946 ft | 448 kts | 252° |
| 2026-05-08 20:17 | 52.16797 | 109.76163 | 35948 ft | 446 kts | 266° |
| 2026-05-08 20:17 | 52.16663 | 109.66019 | 35959 ft | 445 kts | 271° |
| 2026-05-08 20:18 | 52.16609 | 109.55934 | 35958 ft | 445 kts | 270° |
| 2026-05-08 20:18 | 52.16537 | 109.45913 | 35961 ft | 446 kts | 270° |
| 2026-05-08 20:19 | 52.16445 | 109.35817 | 35969 ft | 446 kts | 270° |
| 2026-05-08 20:19 | 52.16351 | 109.25712 | 35969 ft | 446 kts | 270° |
| 2026-05-08 20:20 | 52.16256 | 109.15610 | 35971 ft | 446 kts | 270° |
| 2026-05-08 20:20 | 52.16159 | 109.05512 | 35976 ft | 446 kts | 270° |
| 2026-05-08 20:21 | 52.16050 | 108.95409 | 35972 ft | 446 kts | 270° |
| 2026-05-08 20:21 | 52.15924 | 108.85296 | 35973 ft | 447 kts | 270° |
| 2026-05-08 20:22 | 52.15793 | 108.75167 | 35976 ft | 447 kts | 270° |
| 2026-05-08 20:22 | 52.15683 | 108.66751 | 35972 ft | 447 kts | 270° |
| 2026-05-08 20:23 | 52.15509 | 108.54990 | 35975 ft | 447 kts | 270° |
| 2026-05-08 20:23 | 52.15352 | 108.44866 | 35965 ft | 447 kts | 270° |
| 2026-05-08 20:24 | 52.15192 | 108.34734 | 35969 ft | 448 kts | 270° |
| 2026-05-08 20:24 | 52.15023 | 108.24602 | 35970 ft | 448 kts | 270° |
| 2026-05-08 20:25 | 52.14833 | 108.14453 | 35972 ft | 448 kts | 270° |
| 2026-05-08 20:25 | 52.14639 | 108.04372 | 35966 ft | 448 kts | 270° |
| 2026-05-08 20:26 | 52.14446 | 107.94228 | 35952 ft | 448 kts | 270° |
| 2026-05-08 20:26 | 52.14232 | 107.84075 | 35958 ft | 448 kts | 270° |
| 2026-05-08 20:27 | 52.14013 | 107.73930 | 35960 ft | 448 kts | 270° |
| 2026-05-08 20:27 | 52.13800 | 107.63789 | 35966 ft | 448 kts | 270° |
| 2026-05-08 20:28 | 52.13583 | 107.53636 | 35972 ft | 448 kts | 270° |
| 2026-05-08 20:28 | 52.13348 | 107.43496 | 35940 ft | 449 kts | 270° |
| 2026-05-08 20:29 | 52.13186 | 107.38430 | 35712 ft | 449 kts | 269° |
| 2026-05-08 20:29 | 52.12983 | 107.33362 | 35498 ft | 449 kts | 268° |
| 2026-05-08 20:29 | 52.12757 | 107.28294 | 35260 ft | 449 kts | 268° |
| 2026-05-08 20:29 | 52.12524 | 107.23227 | 34924 ft | 449 kts | 268° |
| 2026-05-08 20:30 | 52.12290 | 107.18154 | 34590 ft | 449 kts | 268° |
| 2026-05-08 20:30 | 52.12063 | 107.13149 | 34270 ft | 450 kts | 269° |
| 2026-05-08 20:30 | 52.11840 | 107.08073 | 33937 ft | 450 kts | 269° |
| 2026-05-08 20:30 | 52.11621 | 107.02988 | 33540 ft | 450 kts | 269° |
| 2026-05-08 20:31 | 52.11403 | 106.97901 | 33167 ft | 451 kts | 269° |
| 2026-05-08 20:31 | 52.11181 | 106.92809 | 32777 ft | 451 kts | 269° |
| 2026-05-08 20:31 | 52.10953 | 106.87726 | 32411 ft | 450 kts | 269° |
| 2026-05-08 20:31 | 52.10720 | 106.82664 | 32022 ft | 447 kts | 269° |
| 2026-05-08 20:32 | 52.10482 | 106.77638 | 31615 ft | 444 kts | 269° |
| 2026-05-08 20:32 | 52.10237 | 106.72641 | 31210 ft | 441 kts | 269° |
| 2026-05-08 20:32 | 52.09989 | 106.67685 | 30817 ft | 438 kts | 269° |
| 2026-05-08 20:32 | 52.09740 | 106.62762 | 30427 ft | 435 kts | 269° |
| 2026-05-08 20:33 | 52.09490 | 106.57873 | 30032 ft | 432 kts | 269° |
| 2026-05-08 20:33 | 52.09241 | 106.53012 | 29572 ft | 429 kts | 269° |
| 2026-05-08 20:33 | 52.08995 | 106.48194 | 29116 ft | 426 kts | 269° |
| 2026-05-08 20:33 | 52.08751 | 106.43412 | 28668 ft | 422 kts | 269° |
| 2026-05-08 20:34 | 52.08507 | 106.38667 | 28204 ft | 420 kts | 269° |
| 2026-05-08 20:34 | 52.08259 | 106.33959 | 27771 ft | 417 kts | 269° |
| 2026-05-08 20:34 | 52.07850 | 106.26195 | 27072 ft | 412 kts | 269° |
| 2026-05-08 20:35 | 52.07541 | 106.20045 | 26525 ft | 409 kts | 269° |
| 2026-05-08 20:35 | 52.07391 | 106.16991 | 26253 ft | 407 kts | 269° |
| 2026-05-08 20:35 | 52.07089 | 106.10899 | 25715 ft | 411 kts | 269° |
| 2026-05-08 20:35 | 52.06857 | 106.06309 | 25308 ft | 404 kts | 269° |
| 2026-05-08 20:36 | 52.06628 | 106.01783 | 24914 ft | 400 kts | 269° |
| 2026-05-08 20:36 | 52.06473 | 105.98740 | 24652 ft | 398 kts | 269° |
| 2026-05-08 20:36 | 52.06245 | 105.94263 | 24264 ft | 396 kts | 269° |
| 2026-05-08 20:36 | 52.06018 | 105.89876 | 23891 ft | 394 kts | 269° |
| 2026-05-08 20:37 | 52.05784 | 105.85449 | 23476 ft | 392 kts | 269° |
| 2026-05-08 20:37 | 52.05550 | 105.81053 | 23032 ft | 389 kts | 269° |
| 2026-05-08 20:37 | 52.05316 | 105.76680 | 22593 ft | 387 kts | 269° |
| 2026-05-08 20:37 | 52.05082 | 105.72343 | 22162 ft | 384 kts | 269° |
| 2026-05-08 20:38 | 52.04847 | 105.68032 | 21737 ft | 382 kts | 269° |
| 2026-05-08 20:38 | 52.04613 | 105.63755 | 21307 ft | 379 kts | 269° |
| 2026-05-08 20:38 | 52.04378 | 105.59504 | 20894 ft | 377 kts | 269° |
| 2026-05-08 20:38 | 52.04144 | 105.55281 | 20487 ft | 374 kts | 269° |
| 2026-05-08 20:39 | 52.03910 | 105.51087 | 20089 ft | 372 kts | 269° |
| 2026-05-08 20:39 | 52.03674 | 105.46914 | 19693 ft | 370 kts | 268° |
| 2026-05-08 20:39 | 52.03440 | 105.42771 | 19288 ft | 367 kts | 269° |
| 2026-05-08 20:39 | 52.03245 | 105.38653 | 18903 ft | 364 kts | 270° |
| 2026-05-08 20:40 | 52.03132 | 105.34555 | 18501 ft | 362 kts | 271° |
| 2026-05-08 20:40 | 52.03063 | 105.30490 | 18102 ft | 359 kts | 272° |
| 2026-05-08 20:40 | 52.03004 | 105.26450 | 17669 ft | 356 kts | 272° |
| 2026-05-08 20:40 | 52.02940 | 105.22442 | 17229 ft | 354 kts | 272° |
| 2026-05-08 20:41 | 52.02867 | 105.18506 | 16817 ft | 352 kts | 271° |
| 2026-05-08 20:41 | 52.02782 | 105.14547 | 16399 ft | 350 kts | 271° |
| 2026-05-08 20:41 | 52.02690 | 105.10607 | 15983 ft | 347 kts | 271° |
| 2026-05-08 20:41 | 52.02595 | 105.06701 | 15580 ft | 345 kts | 271° |
| 2026-05-08 20:42 | 52.02498 | 105.02827 | 15176 ft | 343 kts | 271° |
| 2026-05-08 20:42 | 52.02401 | 104.98972 | 14781 ft | 341 kts | 271° |
| 2026-05-08 20:42 | 52.02308 | 104.95143 | 14393 ft | 339 kts | 271° |
| 2026-05-08 20:42 | 52.02214 | 104.91330 | 14009 ft | 337 kts | 271° |
| 2026-05-08 20:43 | 52.02114 | 104.87542 | 13613 ft | 334 kts | 271° |
| 2026-05-08 20:43 | 52.02013 | 104.83803 | 13167 ft | 328 kts | 271° |
| 2026-05-08 20:43 | 52.01913 | 104.80151 | 12730 ft | 320 kts | 271° |
| 2026-05-08 20:43 | 52.01817 | 104.76583 | 12313 ft | 313 kts | 271° |
| 2026-05-08 20:44 | 52.01719 | 104.73087 | 11905 ft | 307 kts | 270° |
| 2026-05-08 20:44 | 52.01520 | 104.69659 | 11498 ft | 304 kts | 261° |
| 2026-05-08 20:44 | 52.00729 | 104.66496 | 11092 ft | 305 kts | 240° |
| 2026-05-08 20:44 | 51.99270 | 104.64006 | 10705 ft | 307 kts | 217° |
| 2026-05-08 20:45 | 51.97322 | 104.62608 | 10313 ft | 311 kts | 193° |
| 2026-05-08 20:45 | 51.95164 | 104.62618 | 9996 ft | 311 kts | 167° |
| 2026-05-08 20:45 | 51.93220 | 104.64029 | 9954 ft | 307 kts | 142° |
| 2026-05-08 20:45 | 51.91760 | 104.66513 | 9954 ft | 304 kts | 120° |
| 2026-05-08 20:46 | 51.90681 | 104.69455 | 9954 ft | 304 kts | 116° |
| 2026-05-08 20:46 | 51.89676 | 104.72476 | 9956 ft | 304 kts | 115° |
| 2026-05-08 20:46 | 51.88700 | 104.75509 | 9959 ft | 304 kts | 115° |
| 2026-05-08 20:46 | 51.87753 | 104.78554 | 9969 ft | 300 kts | 109° |
| 2026-05-08 20:47 | 51.87348 | 104.81766 | 9962 ft | 293 kts | 87° |
| 2026-05-08 20:47 | 51.87671 | 104.84973 | 9966 ft | 287 kts | 66° |
| 2026-05-08 20:47 | 51.88638 | 104.87740 | 9963 ft | 281 kts | 46° |
| 2026-05-08 20:47 | 51.90111 | 104.89761 | 9965 ft | 276 kts | 27° |
| 2026-05-08 20:48 | 51.91896 | 104.90810 | 9969 ft | 273 kts | 7° |
| 2026-05-08 20:48 | 51.93778 | 104.90814 | 9969 ft | 272 kts | 349° |
| 2026-05-08 20:48 | 51.95550 | 104.89786 | 9965 ft | 272 kts | 330° |
| 2026-05-08 20:48 | 51.97007 | 104.87829 | 9964 ft | 275 kts | 311° |
| 2026-05-08 20:49 | 51.98085 | 104.85259 | 9965 ft | 277 kts | 303° |
| 2026-05-08 20:49 | 51.99039 | 104.82540 | 9968 ft | 278 kts | 301° |
| 2026-05-08 20:49 | 51.99944 | 104.79782 | 9950 ft | 276 kts | 300° |
| 2026-05-08 20:49 | 52.00834 | 104.77025 | 9956 ft | 275 kts | 300° |
| 2026-05-08 20:50 | 52.01728 | 104.74267 | 9958 ft | 275 kts | 300° |
| 2026-05-08 20:50 | 52.02298 | 104.71295 | 9955 ft | 281 kts | 277° |
| 2026-05-08 20:50 | 52.02022 | 104.68181 | 9956 ft | 288 kts | 251° |
| 2026-05-08 20:50 | 52.00883 | 104.65481 | 9959 ft | 297 kts | 224° |
| 2026-05-08 20:51 | 51.99061 | 104.63882 | 9960 ft | 304 kts | 195° |
| 2026-05-08 20:51 | 51.96955 | 104.63845 | 9959 ft | 307 kts | 165° |
| 2026-05-08 20:51 | 51.95078 | 104.65426 | 9955 ft | 306 kts | 136° |
| 2026-05-08 20:51 | 51.93862 | 104.68201 | 9958 ft | 302 kts | 112° |
| 2026-05-08 20:52 | 51.92921 | 104.71260 | 9960 ft | 304 kts | 115° |
| 2026-05-08 20:52 | 51.91920 | 104.74278 | 9958 ft | 304 kts | 116° |
| 2026-05-08 20:52 | 51.90892 | 104.77272 | 9963 ft | 304 kts | 116° |
| 2026-05-08 20:52 | 51.90072 | 104.80379 | 9965 ft | 297 kts | 97° |
| 2026-05-08 20:53 | 51.90154 | 104.83635 | 9967 ft | 288 kts | 69° |
| 2026-05-08 20:53 | 51.91118 | 104.86389 | 9967 ft | 280 kts | 43° |
| 2026-05-08 20:53 | 51.92693 | 104.88136 | 9964 ft | 274 kts | 18° |
| 2026-05-08 20:53 | 51.94548 | 104.88621 | 9966 ft | 271 kts | 355° |
| 2026-05-08 20:54 | 51.96352 | 104.87793 | 9963 ft | 272 kts | 331° |
| 2026-05-08 20:54 | 51.97779 | 104.85793 | 9965 ft | 275 kts | 308° |
| 2026-05-08 20:54 | 51.98783 | 104.83133 | 9968 ft | 277 kts | 301° |
| 2026-05-08 20:54 | 51.99711 | 104.80396 | 9948 ft | 276 kts | 300° |
| 2026-05-08 20:55 | 52.00612 | 104.77651 | 9957 ft | 275 kts | 300° |
| 2026-05-08 20:55 | 52.01511 | 104.74906 | 9956 ft | 275 kts | 300° |
| 2026-05-08 20:55 | 52.02402 | 104.72202 | 9958 ft | 275 kts | 301° |
| 2026-05-08 20:55 | 52.03316 | 104.69473 | 9948 ft | 275 kts | 301° |
| 2026-05-08 20:56 | 52.04237 | 104.66753 | 9949 ft | 275 kts | 301° |
| 2026-05-08 20:56 | 52.05160 | 104.64035 | 9944 ft | 275 kts | 301° |
| 2026-05-08 20:56 | 52.06084 | 104.61315 | 9942 ft | 275 kts | 301° |
| 2026-05-08 20:56 | 52.07007 | 104.58589 | 9940 ft | 275 kts | 301° |
| 2026-05-08 20:57 | 52.07928 | 104.55866 | 9935 ft | 275 kts | 301° |
| 2026-05-08 20:57 | 52.08848 | 104.53145 | 9935 ft | 275 kts | 301° |
| 2026-05-08 20:57 | 52.09770 | 104.50418 | 9934 ft | 275 kts | 301° |
| 2026-05-08 20:57 | 52.10691 | 104.47692 | 9929 ft | 275 kts | 301° |
| 2026-05-08 20:58 | 52.11611 | 104.44966 | 9927 ft | 275 kts | 301° |
| 2026-05-08 20:58 | 52.12532 | 104.42236 | 9930 ft | 276 kts | 301° |
| 2026-05-08 20:58 | 52.13453 | 104.39496 | 9926 ft | 276 kts | 301° |
| 2026-05-08 20:58 | 52.14375 | 104.36747 | 9925 ft | 277 kts | 301° |
| 2026-05-08 20:59 | 52.15295 | 104.34001 | 9923 ft | 276 kts | 301° |
| 2026-05-08 20:59 | 52.16218 | 104.31249 | 9923 ft | 276 kts | 301° |
| 2026-05-08 20:59 | 52.17140 | 104.28496 | 9922 ft | 276 kts | 301° |
| 2026-05-08 20:59 | 52.18061 | 104.25745 | 9924 ft | 276 kts | 301° |
| 2026-05-08 21:00 | 52.18980 | 104.22995 | 9818 ft | 277 kts | 301° |
| 2026-05-08 21:00 | 52.19897 | 104.20241 | 9543 ft | 276 kts | 300° |
| 2026-05-08 21:00 | 52.20808 | 104.17497 | 9109 ft | 274 kts | 300° |
| 2026-05-08 21:00 | 52.21698 | 104.14814 | 8669 ft | 271 kts | 300° |
| 2026-05-08 21:01 | 52.22591 | 104.12126 | 8235 ft | 268 kts | 300° |
| 2026-05-08 21:01 | 52.23504 | 104.09492 | 7799 ft | 265 kts | 307° |
| 2026-05-08 21:01 | 52.24853 | 104.07541 | 7376 ft | 260 kts | 333° |
| 2026-05-08 21:01 | 52.26564 | 104.06803 | 6955 ft | 253 kts | 359° |
| 2026-05-08 21:02 | 52.28263 | 104.07355 | 6533 ft | 249 kts | 22° |
| 2026-05-08 21:02 | 52.29839 | 104.08468 | 6109 ft | 245 kts | 22° |
| 2026-05-08 21:02 | 52.31389 | 104.09560 | 5677 ft | 241 kts | 22° |
| 2026-05-08 21:02 | 52.32779 | 104.10994 | 5286 ft | 235 kts | 50° |
| 2026-05-08 21:03 | 52.33360 | 104.13387 | 5033 ft | 226 kts | 88° |
| 2026-05-08 21:03 | 52.32967 | 104.15823 | 4793 ft | 223 kts | 115° |
| 2026-05-08 21:03 | 52.32329 | 104.18159 | 4394 ft | 226 kts | 112° |
| 2026-05-08 21:03 | 52.31718 | 104.20521 | 4054 ft | 224 kts | 112° |
| 2026-05-08 21:04 | 52.31108 | 104.22850 | 3721 ft | 221 kts | 113° |
| 2026-05-08 21:04 | 52.30516 | 104.25096 | 3420 ft | 209 kts | 113° |
| 2026-05-08 21:04 | 52.29958 | 104.27209 | 3110 ft | 197 kts | 113° |
| 2026-05-08 21:04 | 52.29433 | 104.29198 | 2833 ft | 183 kts | 113° |
| 2026-05-08 21:05 | 52.28960 | 104.30987 | 2573 ft | 162 kts | 114° |
| 2026-05-08 21:05 | 52.28537 | 104.32585 | 2340 ft | 146 kts | 113° |
| 2026-05-08 21:05 | 52.28150 | 104.34048 | 2133 ft | 137 kts | 114° |
| 2026-05-08 21:05 | 52.27778 | 104.35449 | 1947 ft | 133 kts | 113° |
| 2026-05-08 21:06 | 52.27413 | 104.36826 | 1764 ft | 131 kts | 113° |
| 2026-05-08 21:06 | 52.27052 | 104.38188 | 1600 ft | 128 kts | 113° |
| 2026-05-08 21:06 | 52.26754 | 104.39313 | 1635 ft | 84 kts | 113° |
| 2026-05-08 21:06 | 52.26614 | 104.39842 | 1644 ft | 19 kts | 113° |
| 2026-05-08 21:07 | 52.26575 | 104.39988 | 1652 ft | 11 kts | 113° |
| 2026-05-08 21:07 | 52.26549 | 104.40086 | 1663 ft | 8 kts | 113° |
| 2026-05-08 21:07 | 52.26530 | 104.40157 | 1668 ft | 6 kts | 113° |
| 2026-05-08 21:07 | 52.26513 | 104.40224 | 1668 ft | 10 kts | 113° |
| 2026-05-08 21:08 | 52.26476 | 104.40361 | 1675 ft | 16 kts | 113° |
| 2026-05-08 21:08 | 52.26420 | 104.40568 | 1684 ft | 23 kts | 114° |
| 2026-05-08 21:08 | 52.26350 | 104.40830 | 1688 ft | 27 kts | 113° |
| 2026-05-08 21:08 | 52.26287 | 104.41070 | 1688 ft | 18 kts | 113° |
| 2026-05-08 21:09 | 52.26249 | 104.41214 | 1693 ft | 13 kts | 114° |
| 2026-05-08 21:09 | 52.26195 | 104.41291 | 1695 ft | 9 kts | 173° |
| 2026-05-08 21:09 | 52.26133 | 104.41259 | 1695 ft | 10 kts | 203° |
| 2026-05-08 21:09 | 52.26059 | 104.41206 | 1691 ft | 15 kts | 204° |
| 2026-05-08 21:10 | 52.25998 | 104.41058 | 1679 ft | 19 kts | 288° |
| 2026-05-08 21:10 | 52.26041 | 104.40894 | 1679 ft | 14 kts | 293° |
| 2026-05-08 21:10 | 52.26087 | 104.40720 | 1672 ft | 19 kts | 293° |
| 2026-05-08 21:10 | 52.26135 | 104.40540 | 1673 ft | 9 kts | 293° |
| 2026-05-08 21:11 | 52.26166 | 104.40423 | 1669 ft | 14 kts | 293° |
| 2026-05-08 21:11 | 52.26199 | 104.40299 | 1667 ft | 11 kts | 293° |
| 2026-05-08 21:11 | 52.26237 | 104.40159 | 1662 ft | 16 kts | 293° |
| 2026-05-08 21:11 | 52.26287 | 104.39968 | 1655 ft | 21 kts | 293° |
| 2026-05-08 21:12 | 52.26351 | 104.39728 | 1650 ft | 25 kts | 293° |
| 2026-05-08 21:12 | 52.26401 | 104.39536 | 1645 ft | 19 kts | 293° |
| 2026-05-08 21:12 | 52.26459 | 104.39319 | 1643 ft | 22 kts | 293° |
| 2026-05-08 21:12 | 52.26522 | 104.39084 | 1643 ft | 24 kts | 294° |
| 2026-05-08 21:13 | 52.26574 | 104.38887 | 1634 ft | 13 kts | 294° |
| 2026-05-08 21:13 | 52.26620 | 104.38715 | 1621 ft | 17 kts | 293° |
| 2026-05-08 21:13 | 52.26676 | 104.38504 | 1611 ft | 23 kts | 294° |
| 2026-05-08 21:13 | 52.26741 | 104.38258 | 1613 ft | 15 kts | 293° |
| 2026-05-08 21:14 | 52.26774 | 104.38134 | 1610 ft | 15 kts | 293° |
| 2026-05-08 21:14 | 52.26820 | 104.37960 | 1599 ft | 14 kts | 293° |
| 2026-05-08 21:14 | 52.26861 | 104.37808 | 1594 ft | 12 kts | 294° |
| 2026-05-08 21:14 | 52.26900 | 104.37661 | 1594 ft | 15 kts | 293° |
| 2026-05-08 21:15 | 52.26945 | 104.37491 | 1587 ft | 18 kts | 293° |
| 2026-05-08 21:15 | 52.26978 | 104.37366 | 1586 ft | 8 kts | 294° |
| 2026-05-08 21:15 | 52.26999 | 104.37284 | 1585 ft | 5 kts | 288° |
| 2026-05-08 21:15 | 52.26993 | 104.37208 | 1585 ft | 8 kts | 250° |
| 2026-05-08 21:16 | 52.26993 | 104.37105 | 1585 ft | 11 kts | 295° |
| 2026-05-08 21:16 | 52.27012 | 104.37023 | 1585 ft | 3 kts | 290° |
| 2026-05-08 21:16 | 52.27023 | 104.36974 | 1585 ft | 4 kts | 290° |
| 2026-05-08 21:16 | 52.27034 | 104.36931 | 1585 ft | 3 kts | 292° |
| 2026-05-08 21:17 | 52.27044 | 104.36887 | 1585 ft | 5 kts | 290° |
| 2026-05-08 21:17 | 52.27060 | 104.36815 | 1585 ft | 8 kts | 290° |
| 2026-05-08 21:17 | 52.27077 | 104.36740 | 1585 ft | 4 kts | 290° |
| 2026-05-08 21:17 | 52.27082 | 104.36719 | 1585 ft | 0 kts | 290° |
| 2026-05-08 21:23 | 52.27081 | 104.36720 | 1585 ft | 2 kts | 290° |
| 2026-05-08 21:23 | 52.27076 | 104.36748 | 1585 ft | 3 kts | 247° |
| 2026-05-08 21:24 | 52.27085 | 104.36774 | 1585 ft | 3 kts | 206° |
| 2026-05-08 21:24 | 52.27100 | 104.36783 | 1585 ft | 3 kts | 208° |
| 2026-05-08 21:24 | 52.27115 | 104.36795 | 1585 ft | 1 kts | 206° |
| 2026-05-08 21:24 | 52.27116 | 104.36796 | 1585 ft | 0 kts | 206° |